sensor_id;sensor_type;location;lat;lon;timestamp;P1;durP1;ratioP1;P2;durP2;ratioP2
21181;SDS011;10749;46.296;7.524;2023-04-25T00:00:18;3.27;;;1.63;;
21181;SDS011;10749;46.296;7.524;2023-04-25T00:02:44;2.93;;;1.57;;
21181;SDS011;10749;46.296;7.524;2023-04-25T00:05:09;4.20;;;1.40;;
21181;SDS011;10749;46.296;7.524;2023-04-25T00:07:35;4.40;;;1.37;;
21181;SDS011;10749;46.296;7.524;2023-04-25T00:10:00;4.30;;;1.53;;
21181;SDS011;10749;46.296;7.524;2023-04-25T00:12:25;4.47;;;1.50;;
21181;SDS011;10749;46.296;7.524;2023-04-25T00:14:53;3.20;;;1.70;;
21181;SDS011;10749;46.296;7.524;2023-04-25T00:17:21;4.53;;;1.73;;
21181;SDS011;10749;46.296;7.524;2023-04-25T00:19:49;2.03;;;1.50;;
21181;SDS011;10749;46.296;7.524;2023-04-25T00:22:14;4.47;;;1.60;;
21181;SDS011;10749;46.296;7.524;2023-04-25T00:24:40;2.57;;;1.50;;
21181;SDS011;10749;46.296;7.524;2023-04-25T00:27:06;4.47;;;1.43;;
21181;SDS011;10749;46.296;7.524;2023-04-25T00:29:31;3.77;;;1.60;;
21181;SDS011;10749;46.296;7.524;2023-04-25T00:31:56;3.57;;;1.50;;
21181;SDS011;10749;46.296;7.524;2023-04-25T00:34:21;3.13;;;1.43;;
21181;SDS011;10749;46.296;7.524;2023-04-25T00:36:47;3.77;;;1.50;;
21181;SDS011;10749;46.296;7.524;2023-04-25T00:39:12;3.77;;;1.60;;
21181;SDS011;10749;46.296;7.524;2023-04-25T00:41:37;5.00;;;1.50;;
21181;SDS011;10749;46.296;7.524;2023-04-25T00:44:03;5.23;;;1.67;;
21181;SDS011;10749;46.296;7.524;2023-04-25T00:46:30;4.63;;;1.80;;
21181;SDS011;10749;46.296;7.524;2023-04-25T00:48:56;2.90;;;1.50;;
21181;SDS011;10749;46.296;7.524;2023-04-25T00:51:21;1.87;;;1.40;;
21181;SDS011;10749;46.296;7.524;2023-04-25T00:53:47;2.37;;;1.33;;
21181;SDS011;10749;46.296;7.524;2023-04-25T00:56:16;3.97;;;1.83;;
21181;SDS011;10749;46.296;7.524;2023-04-25T00:58:41;2.27;;;1.30;;
21181;SDS011;10749;46.296;7.524;2023-04-25T01:01:11;3.97;;;1.67;;
21181;SDS011;10749;46.296;7.524;2023-04-25T01:03:37;2.67;;;1.60;;
21181;SDS011;10749;46.296;7.524;2023-04-25T01:06:10;3.40;;;1.53;;
21181;SDS011;10749;46.296;7.524;2023-04-25T01:08:37;6.40;;;1.87;;
21181;SDS011;10749;46.296;7.524;2023-04-25T01:11:03;4.13;;;1.43;;
21181;SDS011;10749;46.296;7.524;2023-04-25T01:13:29;6.73;;;2.03;;
21181;SDS011;10749;46.296;7.524;2023-04-25T01:15:55;4.00;;;1.90;;
21181;SDS011;10749;46.296;7.524;2023-04-25T01:18:20;4.87;;;1.40;;
21181;SDS011;10749;46.296;7.524;2023-04-25T01:20:46;5.30;;;1.60;;
21181;SDS011;10749;46.296;7.524;2023-04-25T01:23:12;4.10;;;1.70;;
21181;SDS011;10749;46.296;7.524;2023-04-25T01:25:38;3.20;;;1.67;;
21181;SDS011;10749;46.296;7.524;2023-04-25T01:28:04;2.53;;;1.20;;
21181;SDS011;10749;46.296;7.524;2023-04-25T01:30:30;3.53;;;1.70;;
21181;SDS011;10749;46.296;7.524;2023-04-25T01:32:56;1.60;;;1.50;;
21181;SDS011;10749;46.296;7.524;2023-04-25T01:35:22;3.47;;;1.70;;
21181;SDS011;10749;46.296;7.524;2023-04-25T01:37:49;2.83;;;1.50;;
21181;SDS011;10749;46.296;7.524;2023-04-25T01:40:14;4.03;;;1.60;;
21181;SDS011;10749;46.296;7.524;2023-04-25T01:42:41;2.60;;;1.43;;
21181;SDS011;10749;46.296;7.524;2023-04-25T01:45:07;2.43;;;1.40;;
21181;SDS011;10749;46.296;7.524;2023-04-25T01:47:34;2.77;;;1.50;;
21181;SDS011;10749;46.296;7.524;2023-04-25T01:50:02;5.20;;;1.87;;
21181;SDS011;10749;46.296;7.524;2023-04-25T01:52:29;4.43;;;1.60;;
21181;SDS011;10749;46.296;7.524;2023-04-25T01:54:54;4.80;;;1.70;;
21181;SDS011;10749;46.296;7.524;2023-04-25T01:57:21;3.47;;;1.70;;
21181;SDS011;10749;46.296;7.524;2023-04-25T01:59:47;3.33;;;1.47;;
21181;SDS011;10749;46.296;7.524;2023-04-25T02:02:12;2.13;;;1.33;;
21181;SDS011;10749;46.296;7.524;2023-04-25T02:04:37;2.60;;;1.40;;
21181;SDS011;10749;46.296;7.524;2023-04-25T02:07:03;2.13;;;1.40;;
21181;SDS011;10749;46.296;7.524;2023-04-25T02:09:28;3.40;;;1.40;;
21181;SDS011;10749;46.296;7.524;2023-04-25T02:11:53;4.33;;;1.50;;
21181;SDS011;10749;46.296;7.524;2023-04-25T02:14:19;3.60;;;1.70;;
21181;SDS011;10749;46.296;7.524;2023-04-25T02:16:44;2.20;;;1.30;;
21181;SDS011;10749;46.296;7.524;2023-04-25T02:19:09;3.37;;;1.60;;
21181;SDS011;10749;46.296;7.524;2023-04-25T02:21:35;4.37;;;1.50;;
21181;SDS011;10749;46.296;7.524;2023-04-25T02:24:01;3.27;;;1.50;;
21181;SDS011;10749;46.296;7.524;2023-04-25T02:26:26;5.70;;;1.90;;
21181;SDS011;10749;46.296;7.524;2023-04-25T02:28:52;2.27;;;1.50;;
21181;SDS011;10749;46.296;7.524;2023-04-25T02:31:17;4.17;;;1.50;;
21181;SDS011;10749;46.296;7.524;2023-04-25T02:33:42;4.53;;;1.70;;
21181;SDS011;10749;46.296;7.524;2023-04-25T02:36:08;3.80;;;1.50;;
21181;SDS011;10749;46.296;7.524;2023-04-25T02:38:33;2.80;;;1.60;;
21181;SDS011;10749;46.296;7.524;2023-04-25T02:40:58;4.27;;;1.87;;
21181;SDS011;10749;46.296;7.524;2023-04-25T02:43:24;3.07;;;1.70;;
21181;SDS011;10749;46.296;7.524;2023-04-25T02:45:49;2.77;;;1.80;;
21181;SDS011;10749;46.296;7.524;2023-04-25T02:48:15;4.00;;;1.50;;
21181;SDS011;10749;46.296;7.524;2023-04-25T02:50:40;5.57;;;1.83;;
21181;SDS011;10749;46.296;7.524;2023-04-25T02:53:05;5.00;;;1.63;;
21181;SDS011;10749;46.296;7.524;2023-04-25T02:55:30;2.67;;;1.33;;
21181;SDS011;10749;46.296;7.524;2023-04-25T02:57:56;2.73;;;1.70;;
21181;SDS011;10749;46.296;7.524;2023-04-25T03:00:21;2.53;;;1.63;;
21181;SDS011;10749;46.296;7.524;2023-04-25T03:02:47;2.13;;;1.40;;
21181;SDS011;10749;46.296;7.524;2023-04-25T03:05:13;3.80;;;1.40;;
21181;SDS011;10749;46.296;7.524;2023-04-25T03:07:38;4.53;;;1.70;;
21181;SDS011;10749;46.296;7.524;2023-04-25T03:10:05;2.30;;;1.53;;
21181;SDS011;10749;46.296;7.524;2023-04-25T03:12:33;4.40;;;1.57;;
21181;SDS011;10749;46.296;7.524;2023-04-25T03:14:58;3.97;;;1.70;;
21181;SDS011;10749;46.296;7.524;2023-04-25T03:17:23;3.13;;;1.50;;
21181;SDS011;10749;46.296;7.524;2023-04-25T03:19:49;2.27;;;1.57;;
21181;SDS011;10749;46.296;7.524;2023-04-25T03:22:14;2.50;;;1.57;;
21181;SDS011;10749;46.296;7.524;2023-04-25T03:24:39;3.20;;;1.50;;
21181;SDS011;10749;46.296;7.524;2023-04-25T03:27:05;3.20;;;1.60;;
21181;SDS011;10749;46.296;7.524;2023-04-25T03:29:30;3.37;;;1.50;;
21181;SDS011;10749;46.296;7.524;2023-04-25T03:31:56;2.80;;;1.27;;
21181;SDS011;10749;46.296;7.524;2023-04-25T03:34:21;3.33;;;1.50;;
21181;SDS011;10749;46.296;7.524;2023-04-25T03:36:46;2.70;;;1.60;;
21181;SDS011;10749;46.296;7.524;2023-04-25T03:39:12;5.27;;;1.53;;
21181;SDS011;10749;46.296;7.524;2023-04-25T03:41:37;4.47;;;1.47;;
21181;SDS011;10749;46.296;7.524;2023-04-25T03:44:03;3.00;;;1.80;;
21181;SDS011;10749;46.296;7.524;2023-04-25T03:46:28;5.67;;;1.57;;
21181;SDS011;10749;46.296;7.524;2023-04-25T03:48:53;4.80;;;1.60;;
21181;SDS011;10749;46.296;7.524;2023-04-25T03:51:19;3.47;;;1.60;;
21181;SDS011;10749;46.296;7.524;2023-04-25T03:53:44;3.83;;;1.50;;
21181;SDS011;10749;46.296;7.524;2023-04-25T03:56:09;5.67;;;1.70;;
21181;SDS011;10749;46.296;7.524;2023-04-25T03:58:35;2.87;;;1.63;;
21181;SDS011;10749;46.296;7.524;2023-04-25T04:01:00;2.73;;;1.27;;
21181;SDS011;10749;46.296;7.524;2023-04-25T04:03:28;3.20;;;1.83;;
21181;SDS011;10749;46.296;7.524;2023-04-25T04:05:53;3.03;;;1.67;;
21181;SDS011;10749;46.296;7.524;2023-04-25T04:08:18;4.03;;;1.80;;
21181;SDS011;10749;46.296;7.524;2023-04-25T04:10:44;5.80;;;2.17;;
21181;SDS011;10749;46.296;7.524;2023-04-25T04:13:09;3.77;;;2.10;;
21181;SDS011;10749;46.296;7.524;2023-04-25T04:15:35;3.87;;;1.80;;
21181;SDS011;10749;46.296;7.524;2023-04-25T04:18:00;5.30;;;2.20;;
21181;SDS011;10749;46.296;7.524;2023-04-25T04:20:28;5.00;;;2.10;;
21181;SDS011;10749;46.296;7.524;2023-04-25T04:22:54;3.67;;;1.87;;
21181;SDS011;10749;46.296;7.524;2023-04-25T04:25:20;4.30;;;1.87;;
21181;SDS011;10749;46.296;7.524;2023-04-25T04:27:45;5.27;;;1.77;;
21181;SDS011;10749;46.296;7.524;2023-04-25T04:30:11;4.13;;;2.07;;
21181;SDS011;10749;46.296;7.524;2023-04-25T04:32:37;4.70;;;1.77;;
21181;SDS011;10749;46.296;7.524;2023-04-25T04:35:03;2.73;;;1.63;;
21181;SDS011;10749;46.296;7.524;2023-04-25T04:37:29;2.57;;;1.67;;
21181;SDS011;10749;46.296;7.524;2023-04-25T04:39:55;2.53;;;1.63;;
21181;SDS011;10749;46.296;7.524;2023-04-25T04:42:20;3.60;;;1.87;;
21181;SDS011;10749;46.296;7.524;2023-04-25T04:44:46;8.43;;;1.70;;
21181;SDS011;10749;46.296;7.524;2023-04-25T04:47:11;5.23;;;1.80;;
21181;SDS011;10749;46.296;7.524;2023-04-25T04:49:37;3.50;;;1.53;;
21181;SDS011;10749;46.296;7.524;2023-04-25T04:52:02;4.30;;;1.90;;
21181;SDS011;10749;46.296;7.524;2023-04-25T04:54:28;4.00;;;1.90;;
21181;SDS011;10749;46.296;7.524;2023-04-25T04:56:53;4.33;;;2.00;;
21181;SDS011;10749;46.296;7.524;2023-04-25T04:59:19;6.87;;;1.93;;
21181;SDS011;10749;46.296;7.524;2023-04-25T05:01:44;3.47;;;1.90;;
21181;SDS011;10749;46.296;7.524;2023-04-25T05:04:10;5.37;;;2.17;;
21181;SDS011;10749;46.296;7.524;2023-04-25T05:06:36;6.27;;;2.00;;
21181;SDS011;10749;46.296;7.524;2023-04-25T05:09:01;3.80;;;1.67;;
21181;SDS011;10749;46.296;7.524;2023-04-25T05:11:27;4.47;;;1.70;;
21181;SDS011;10749;46.296;7.524;2023-04-25T05:13:52;5.30;;;1.83;;
21181;SDS011;10749;46.296;7.524;2023-04-25T05:16:18;2.93;;;1.53;;
21181;SDS011;10749;46.296;7.524;2023-04-25T05:18:43;4.60;;;1.43;;
21181;SDS011;10749;46.296;7.524;2023-04-25T05:21:08;4.80;;;1.67;;
21181;SDS011;10749;46.296;7.524;2023-04-25T05:23:34;3.93;;;1.40;;
21181;SDS011;10749;46.296;7.524;2023-04-25T05:25:59;3.47;;;1.70;;
21181;SDS011;10749;46.296;7.524;2023-04-25T05:28:25;3.67;;;2.07;;
21181;SDS011;10749;46.296;7.524;2023-04-25T05:30:50;6.60;;;2.93;;
21181;SDS011;10749;46.296;7.524;2023-04-25T05:33:15;3.87;;;2.80;;
21181;SDS011;10749;46.296;7.524;2023-04-25T05:35:41;6.17;;;3.40;;
21181;SDS011;10749;46.296;7.524;2023-04-25T05:38:06;5.70;;;3.40;;
21181;SDS011;10749;46.296;7.524;2023-04-25T05:40:32;6.40;;;3.00;;
21181;SDS011;10749;46.296;7.524;2023-04-25T05:42:57;5.90;;;3.20;;
21181;SDS011;10749;46.296;7.524;2023-04-25T05:45:23;6.30;;;2.80;;
21181;SDS011;10749;46.296;7.524;2023-04-25T05:47:48;5.93;;;3.20;;
21181;SDS011;10749;46.296;7.524;2023-04-25T05:50:13;6.00;;;3.20;;
21181;SDS011;10749;46.296;7.524;2023-04-25T05:52:39;5.50;;;3.17;;
21181;SDS011;10749;46.296;7.524;2023-04-25T05:55:04;7.40;;;3.00;;
21181;SDS011;10749;46.296;7.524;2023-04-25T05:57:30;8.37;;;3.67;;
21181;SDS011;10749;46.296;7.524;2023-04-25T05:59:56;6.60;;;3.47;;
21181;SDS011;10749;46.296;7.524;2023-04-25T06:02:21;5.53;;;2.77;;
21181;SDS011;10749;46.296;7.524;2023-04-25T06:04:48;7.63;;;3.23;;
21181;SDS011;10749;46.296;7.524;2023-04-25T06:07:14;5.03;;;2.80;;
21181;SDS011;10749;46.296;7.524;2023-04-25T06:09:40;6.27;;;2.83;;
21181;SDS011;10749;46.296;7.524;2023-04-25T06:12:05;4.47;;;2.63;;
21181;SDS011;10749;46.296;7.524;2023-04-25T06:14:31;5.83;;;2.90;;
21181;SDS011;10749;46.296;7.524;2023-04-25T06:16:57;5.53;;;2.80;;
21181;SDS011;10749;46.296;7.524;2023-04-25T06:19:22;5.50;;;2.90;;
21181;SDS011;10749;46.296;7.524;2023-04-25T06:21:48;5.57;;;2.50;;
21181;SDS011;10749;46.296;7.524;2023-04-25T06:24:13;5.30;;;2.60;;
21181;SDS011;10749;46.296;7.524;2023-04-25T06:26:38;4.00;;;2.20;;
21181;SDS011;10749;46.296;7.524;2023-04-25T06:29:03;4.53;;;2.20;;
21181;SDS011;10749;46.296;7.524;2023-04-25T06:31:29;4.20;;;2.10;;
21181;SDS011;10749;46.296;7.524;2023-04-25T06:33:57;3.10;;;2.20;;
21181;SDS011;10749;46.296;7.524;2023-04-25T06:36:22;3.77;;;2.10;;
21181;SDS011;10749;46.296;7.524;2023-04-25T06:38:50;3.47;;;2.03;;
21181;SDS011;10749;46.296;7.524;2023-04-25T06:41:17;2.40;;;2.00;;
21181;SDS011;10749;46.296;7.524;2023-04-25T06:43:42;3.97;;;2.07;;
21181;SDS011;10749;46.296;7.524;2023-04-25T06:46:07;2.53;;;1.80;;
21181;SDS011;10749;46.296;7.524;2023-04-25T06:48:33;2.90;;;1.97;;
21181;SDS011;10749;46.296;7.524;2023-04-25T06:50:58;2.00;;;1.60;;
21181;SDS011;10749;46.296;7.524;2023-04-25T06:53:23;2.37;;;1.73;;
21181;SDS011;10749;46.296;7.524;2023-04-25T06:55:49;2.43;;;1.53;;
21181;SDS011;10749;46.296;7.524;2023-04-25T06:58:14;3.37;;;1.80;;
21181;SDS011;10749;46.296;7.524;2023-04-25T07:00:40;3.37;;;1.90;;
21181;SDS011;10749;46.296;7.524;2023-04-25T07:03:05;2.67;;;1.43;;
21181;SDS011;10749;46.296;7.524;2023-04-25T07:05:30;1.40;;;1.30;;
21181;SDS011;10749;46.296;7.524;2023-04-25T07:07:56;2.70;;;1.60;;
21181;SDS011;10749;46.296;7.524;2023-04-25T07:10:21;1.77;;;1.33;;
21181;SDS011;10749;46.296;7.524;2023-04-25T07:12:46;2.40;;;1.20;;
21181;SDS011;10749;46.296;7.524;2023-04-25T07:15:11;2.57;;;1.23;;
21181;SDS011;10749;46.296;7.524;2023-04-25T07:17:37;1.53;;;0.87;;
21181;SDS011;10749;46.296;7.524;2023-04-25T07:20:03;1.40;;;0.90;;
21181;SDS011;10749;46.296;7.524;2023-04-25T07:22:29;1.37;;;1.00;;
21181;SDS011;10749;46.296;7.524;2023-04-25T07:24:54;1.20;;;0.90;;
21181;SDS011;10749;46.296;7.524;2023-04-25T07:27:20;1.17;;;0.83;;
21181;SDS011;10749;46.296;7.524;2023-04-25T07:29:45;1.30;;;1.10;;
21181;SDS011;10749;46.296;7.524;2023-04-25T07:32:11;2.70;;;1.20;;
21181;SDS011;10749;46.296;7.524;2023-04-25T07:34:38;1.50;;;1.20;;
21181;SDS011;10749;46.296;7.524;2023-04-25T07:37:03;1.50;;;1.03;;
21181;SDS011;10749;46.296;7.524;2023-04-25T07:39:30;1.13;;;0.93;;
21181;SDS011;10749;46.296;7.524;2023-04-25T07:41:55;1.43;;;1.10;;
21181;SDS011;10749;46.296;7.524;2023-04-25T07:44:22;2.60;;;0.90;;
21181;SDS011;10749;46.296;7.524;2023-04-25T07:46:47;1.30;;;1.00;;
21181;SDS011;10749;46.296;7.524;2023-04-25T07:49:12;1.53;;;1.00;;
21181;SDS011;10749;46.296;7.524;2023-04-25T07:51:38;1.07;;;0.90;;
21181;SDS011;10749;46.296;7.524;2023-04-25T07:54:03;2.97;;;1.03;;
21181;SDS011;10749;46.296;7.524;2023-04-25T07:56:30;1.10;;;1.00;;
21181;SDS011;10749;46.296;7.524;2023-04-25T07:58:55;2.20;;;1.00;;
21181;SDS011;10749;46.296;7.524;2023-04-25T08:01:20;1.20;;;0.80;;
21181;SDS011;10749;46.296;7.524;2023-04-25T08:03:47;1.33;;;1.00;;
21181;SDS011;10749;46.296;7.524;2023-04-25T08:06:12;1.20;;;0.90;;
21181;SDS011;10749;46.296;7.524;2023-04-25T08:08:37;2.57;;;1.00;;
21181;SDS011;10749;46.296;7.524;2023-04-25T08:11:02;1.40;;;0.90;;
21181;SDS011;10749;46.296;7.524;2023-04-25T08:13:28;3.03;;;1.00;;
21181;SDS011;10749;46.296;7.524;2023-04-25T08:15:53;1.10;;;1.00;;
21181;SDS011;10749;46.296;7.524;2023-04-25T08:18:19;1.00;;;0.80;;
21181;SDS011;10749;46.296;7.524;2023-04-25T08:20:45;2.03;;;1.10;;
21181;SDS011;10749;46.296;7.524;2023-04-25T08:23:10;2.00;;;1.00;;
21181;SDS011;10749;46.296;7.524;2023-04-25T08:25:35;1.27;;;0.90;;
21181;SDS011;10749;46.296;7.524;2023-04-25T08:28:01;1.20;;;1.00;;
21181;SDS011;10749;46.296;7.524;2023-04-25T08:30:28;1.70;;;1.10;;
21181;SDS011;10749;46.296;7.524;2023-04-25T08:32:53;1.83;;;1.10;;
21181;SDS011;10749;46.296;7.524;2023-04-25T08:35:19;2.33;;;0.93;;
21181;SDS011;10749;46.296;7.524;2023-04-25T08:37:45;1.83;;;1.20;;
21181;SDS011;10749;46.296;7.524;2023-04-25T08:40:11;1.37;;;0.90;;
21181;SDS011;10749;46.296;7.524;2023-04-25T08:42:39;2.23;;;0.90;;
21181;SDS011;10749;46.296;7.524;2023-04-25T08:45:06;0.97;;;0.87;;
21181;SDS011;10749;46.296;7.524;2023-04-25T08:47:33;1.53;;;1.00;;
21181;SDS011;10749;46.296;7.524;2023-04-25T08:49:59;1.27;;;1.17;;
21181;SDS011;10749;46.296;7.524;2023-04-25T08:52:27;1.53;;;1.07;;
21181;SDS011;10749;46.296;7.524;2023-04-25T08:54:55;2.60;;;1.23;;
21181;SDS011;10749;46.296;7.524;2023-04-25T08:57:22;3.03;;;1.33;;
21181;SDS011;10749;46.296;7.524;2023-04-25T08:59:48;2.87;;;1.17;;
21181;SDS011;10749;46.296;7.524;2023-04-25T09:02:14;1.20;;;1.10;;
21181;SDS011;10749;46.296;7.524;2023-04-25T09:04:42;1.73;;;1.00;;
21181;SDS011;10749;46.296;7.524;2023-04-25T09:07:08;2.83;;;1.40;;
21181;SDS011;10749;46.296;7.524;2023-04-25T09:09:34;2.97;;;1.20;;
21181;SDS011;10749;46.296;7.524;2023-04-25T09:12:00;1.63;;;1.00;;
21181;SDS011;10749;46.296;7.524;2023-04-25T09:14:26;2.53;;;1.27;;
21181;SDS011;10749;46.296;7.524;2023-04-25T09:19:28;1.70;;;1.40;;
21181;SDS011;10749;46.296;7.524;2023-04-25T09:21:55;1.13;;;1.03;;
21181;SDS011;10749;46.296;7.524;2023-04-25T09:27:09;1.47;;;1.30;;
21181;SDS011;10749;46.296;7.524;2023-04-25T09:29:36;2.17;;;1.40;;
21181;SDS011;10749;46.296;7.524;2023-04-25T09:32:22;1.97;;;1.27;;
21181;SDS011;10749;46.296;7.524;2023-04-25T09:37:22;3.20;;;1.20;;
21181;SDS011;10749;46.296;7.524;2023-04-25T09:39:49;1.97;;;1.10;;
21181;SDS011;10749;46.296;7.524;2023-04-25T09:42:16;1.63;;;1.10;;
21181;SDS011;10749;46.296;7.524;2023-04-25T09:44:43;1.00;;;0.90;;
21181;SDS011;10749;46.296;7.524;2023-04-25T09:47:12;1.30;;;0.83;;
21181;SDS011;10749;46.296;7.524;2023-04-25T09:49:39;1.93;;;0.97;;
21181;SDS011;10749;46.296;7.524;2023-04-25T09:52:07;0.67;;;0.60;;
21181;SDS011;10749;46.296;7.524;2023-04-25T09:54:33;1.53;;;0.90;;
21181;SDS011;10749;46.296;7.524;2023-04-25T09:56:59;1.73;;;0.90;;
21181;SDS011;10749;46.296;7.524;2023-04-25T09:59:32;1.30;;;0.63;;
21181;SDS011;10749;46.296;7.524;2023-04-25T10:02:03;1.77;;;0.60;;
21181;SDS011;10749;46.296;7.524;2023-04-25T10:04:29;0.63;;;0.53;;
21181;SDS011;10749;46.296;7.524;2023-04-25T10:06:59;0.50;;;0.40;;
21181;SDS011;10749;46.296;7.524;2023-04-25T10:09:25;0.80;;;0.50;;
21181;SDS011;10749;46.296;7.524;2023-04-25T10:11:51;0.80;;;0.43;;
21181;SDS011;10749;46.296;7.524;2023-04-25T10:14:18;1.13;;;0.63;;
21181;SDS011;10749;46.296;7.524;2023-04-25T10:16:44;0.80;;;0.70;;
21181;SDS011;10749;46.296;7.524;2023-04-25T10:19:10;0.97;;;0.70;;
21181;SDS011;10749;46.296;7.524;2023-04-25T10:21:36;1.03;;;0.70;;
21181;SDS011;10749;46.296;7.524;2023-04-25T10:24:13;0.70;;;0.60;;
21181;SDS011;10749;46.296;7.524;2023-04-25T10:26:39;1.57;;;0.90;;
21181;SDS011;10749;46.296;7.524;2023-04-25T10:29:05;1.47;;;0.83;;
21181;SDS011;10749;46.296;7.524;2023-04-25T10:31:30;3.17;;;1.00;;
21181;SDS011;10749;46.296;7.524;2023-04-25T10:33:56;1.20;;;0.70;;
21181;SDS011;10749;46.296;7.524;2023-04-25T10:36:22;1.20;;;0.80;;
21181;SDS011;10749;46.296;7.524;2023-04-25T10:38:49;2.30;;;0.93;;
21181;SDS011;10749;46.296;7.524;2023-04-25T10:41:21;1.60;;;0.90;;
21181;SDS011;10749;46.296;7.524;2023-04-25T10:43:48;2.20;;;0.90;;
21181;SDS011;10749;46.296;7.524;2023-04-25T10:46:24;1.43;;;1.00;;
21181;SDS011;10749;46.296;7.524;2023-04-25T10:48:51;1.00;;;0.90;;
21181;SDS011;10749;46.296;7.524;2023-04-25T10:51:34;0.90;;;0.80;;
21181;SDS011;10749;46.296;7.524;2023-04-25T10:54:01;3.03;;;1.37;;
21181;SDS011;10749;46.296;7.524;2023-04-25T10:56:29;1.43;;;0.80;;
21181;SDS011;10749;46.296;7.524;2023-04-25T10:59:14;1.53;;;1.07;;
21181;SDS011;10749;46.296;7.524;2023-04-25T11:01:42;1.90;;;1.10;;
21181;SDS011;10749;46.296;7.524;2023-04-25T11:09:32;1.97;;;1.20;;
21181;SDS011;10749;46.296;7.524;2023-04-25T11:11:58;1.47;;;1.03;;
21181;SDS011;10749;46.296;7.524;2023-04-25T11:14:25;1.30;;;1.00;;
21181;SDS011;10749;46.296;7.524;2023-04-25T11:16:54;1.07;;;0.80;;
21181;SDS011;10749;46.296;7.524;2023-04-25T11:19:21;1.17;;;1.00;;
21181;SDS011;10749;46.296;7.524;2023-04-25T11:21:47;3.00;;;0.70;;
21181;SDS011;10749;46.296;7.524;2023-04-25T11:24:12;1.97;;;0.90;;
21181;SDS011;10749;46.296;7.524;2023-04-25T11:26:38;1.67;;;0.70;;
21181;SDS011;10749;46.296;7.524;2023-04-25T11:29:03;1.63;;;0.80;;
21181;SDS011;10749;46.296;7.524;2023-04-25T11:31:29;0.83;;;0.70;;
21181;SDS011;10749;46.296;7.524;2023-04-25T11:33:57;0.87;;;0.50;;
21181;SDS011;10749;46.296;7.524;2023-04-25T11:36:23;0.90;;;0.60;;
21181;SDS011;10749;46.296;7.524;2023-04-25T11:38:51;1.10;;;0.60;;
21181;SDS011;10749;46.296;7.524;2023-04-25T11:41:17;1.53;;;0.70;;
21181;SDS011;10749;46.296;7.524;2023-04-25T11:43:43;0.97;;;0.40;;
21181;SDS011;10749;46.296;7.524;2023-04-25T11:46:09;1.03;;;0.50;;
21181;SDS011;10749;46.296;7.524;2023-04-25T11:48:40;1.17;;;0.70;;
21181;SDS011;10749;46.296;7.524;2023-04-25T11:51:06;1.33;;;0.50;;
21181;SDS011;10749;46.296;7.524;2023-04-25T11:53:32;1.37;;;0.80;;
21181;SDS011;10749;46.296;7.524;2023-04-25T11:55:58;0.77;;;0.60;;
21181;SDS011;10749;46.296;7.524;2023-04-25T11:58:23;1.77;;;0.57;;
21181;SDS011;10749;46.296;7.524;2023-04-25T12:00:48;1.57;;;0.60;;
21181;SDS011;10749;46.296;7.524;2023-04-25T12:03:14;1.37;;;0.60;;
21181;SDS011;10749;46.296;7.524;2023-04-25T12:05:39;1.07;;;0.60;;
21181;SDS011;10749;46.296;7.524;2023-04-25T12:08:11;1.23;;;0.60;;
21181;SDS011;10749;46.296;7.524;2023-04-25T12:10:38;4.10;;;0.83;;
21181;SDS011;10749;46.296;7.524;2023-04-25T12:13:18;1.63;;;0.60;;
21181;SDS011;10749;46.296;7.524;2023-04-25T12:15:44;1.40;;;0.60;;
21181;SDS011;10749;46.296;7.524;2023-04-25T12:18:09;1.50;;;0.77;;
21181;SDS011;10749;46.296;7.524;2023-04-25T12:20:35;1.70;;;0.80;;
21181;SDS011;10749;46.296;7.524;2023-04-25T12:23:00;1.13;;;0.63;;
21181;SDS011;10749;46.296;7.524;2023-04-25T12:25:35;2.60;;;0.80;;
21181;SDS011;10749;46.296;7.524;2023-04-25T12:28:20;2.93;;;0.80;;
21181;SDS011;10749;46.296;7.524;2023-04-25T12:30:58;1.27;;;0.80;;
21181;SDS011;10749;46.296;7.524;2023-04-25T12:33:26;1.73;;;1.00;;
21181;SDS011;10749;46.296;7.524;2023-04-25T12:35:53;1.60;;;0.83;;
21181;SDS011;10749;46.296;7.524;2023-04-25T12:38:28;1.13;;;0.70;;
21181;SDS011;10749;46.296;7.524;2023-04-25T12:40:55;1.87;;;0.80;;
21181;SDS011;10749;46.296;7.524;2023-04-25T12:43:21;1.43;;;0.90;;
21181;SDS011;10749;46.296;7.524;2023-04-25T12:45:47;3.27;;;0.80;;
21181;SDS011;10749;46.296;7.524;2023-04-25T12:48:14;1.07;;;0.50;;
21181;SDS011;10749;46.296;7.524;2023-04-25T12:50:39;0.67;;;0.43;;
21181;SDS011;10749;46.296;7.524;2023-04-25T12:53:04;2.30;;;0.60;;
21181;SDS011;10749;46.296;7.524;2023-04-25T12:55:29;2.90;;;0.80;;
21181;SDS011;10749;46.296;7.524;2023-04-25T12:57:55;2.93;;;0.90;;
21181;SDS011;10749;46.296;7.524;2023-04-25T13:00:20;2.40;;;0.80;;
21181;SDS011;10749;46.296;7.524;2023-04-25T13:02:45;1.23;;;0.40;;
21181;SDS011;10749;46.296;7.524;2023-04-25T13:05:11;1.27;;;0.57;;
21181;SDS011;10749;46.296;7.524;2023-04-25T13:07:37;1.97;;;0.70;;
21181;SDS011;10749;46.296;7.524;2023-04-25T13:10:03;0.73;;;0.50;;
21181;SDS011;10749;46.296;7.524;2023-04-25T13:12:28;1.13;;;0.60;;
21181;SDS011;10749;46.296;7.524;2023-04-25T13:14:54;1.90;;;0.50;;
21181;SDS011;10749;46.296;7.524;2023-04-25T13:17:19;1.27;;;0.50;;
21181;SDS011;10749;46.296;7.524;2023-04-25T13:19:44;1.20;;;0.50;;
21181;SDS011;10749;46.296;7.524;2023-04-25T13:22:10;0.77;;;0.50;;
21181;SDS011;10749;46.296;7.524;2023-04-25T13:24:35;1.37;;;0.50;;
21181;SDS011;10749;46.296;7.524;2023-04-25T13:27:01;1.37;;;0.50;;
21181;SDS011;10749;46.296;7.524;2023-04-25T13:29:26;0.90;;;0.40;;
21181;SDS011;10749;46.296;7.524;2023-04-25T13:31:51;2.27;;;0.57;;
21181;SDS011;10749;46.296;7.524;2023-04-25T13:34:16;1.53;;;0.77;;
21181;SDS011;10749;46.296;7.524;2023-04-25T13:36:42;2.00;;;0.83;;
21181;SDS011;10749;46.296;7.524;2023-04-25T13:39:07;0.90;;;0.50;;
21181;SDS011;10749;46.296;7.524;2023-04-25T13:41:32;1.10;;;0.43;;
21181;SDS011;10749;46.296;7.524;2023-04-25T13:43:58;3.50;;;0.60;;
21181;SDS011;10749;46.296;7.524;2023-04-25T13:46:23;1.70;;;0.60;;
21181;SDS011;10749;46.296;7.524;2023-04-25T13:48:48;2.77;;;0.70;;
21181;SDS011;10749;46.296;7.524;2023-04-25T13:51:15;3.50;;;0.80;;
21181;SDS011;10749;46.296;7.524;2023-04-25T13:53:41;2.70;;;0.80;;
21181;SDS011;10749;46.296;7.524;2023-04-25T13:56:06;1.45;;;0.70;;
21181;SDS011;10749;46.296;7.524;2023-04-25T13:58:31;1.60;;;0.70;;
21181;SDS011;10749;46.296;7.524;2023-04-25T14:00:58;0.68;;;0.40;;
21181;SDS011;10749;46.296;7.524;2023-04-25T14:03:23;1.30;;;0.73;;
21181;SDS011;10749;46.296;7.524;2023-04-25T14:05:48;0.95;;;0.65;;
21181;SDS011;10749;46.296;7.524;2023-04-25T14:08:14;1.08;;;0.60;;
21181;SDS011;10749;46.296;7.524;2023-04-25T14:10:39;0.95;;;0.60;;
21181;SDS011;10749;46.296;7.524;2023-04-25T14:13:05;2.42;;;0.60;;
21181;SDS011;10749;46.296;7.524;2023-04-25T14:15:34;2.25;;;0.80;;
21181;SDS011;10749;46.296;7.524;2023-04-25T14:18:00;2.08;;;0.80;;
21181;SDS011;10749;46.296;7.524;2023-04-25T14:20:26;2.08;;;0.70;;
21181;SDS011;10749;46.296;7.524;2023-04-25T14:22:51;1.40;;;0.75;;
21181;SDS011;10749;46.296;7.524;2023-04-25T14:25:18;1.10;;;0.60;;
21181;SDS011;10749;46.296;7.524;2023-04-25T14:27:44;3.28;;;0.70;;
21181;SDS011;10749;46.296;7.524;2023-04-25T14:30:12;2.08;;;0.90;;
21181;SDS011;10749;46.296;7.524;2023-04-25T14:32:37;0.68;;;0.60;;
21181;SDS011;10749;46.296;7.524;2023-04-25T14:35:03;3.05;;;0.77;;
21181;SDS011;10749;46.296;7.524;2023-04-25T14:37:28;1.63;;;0.60;;
21181;SDS011;10749;46.296;7.524;2023-04-25T14:39:53;1.42;;;0.80;;
21181;SDS011;10749;46.296;7.524;2023-04-25T14:42:19;1.48;;;0.80;;
21181;SDS011;10749;46.296;7.524;2023-04-25T14:44:44;1.60;;;0.80;;
21181;SDS011;10749;46.296;7.524;2023-04-25T14:47:10;2.15;;;0.93;;
21181;SDS011;10749;46.296;7.524;2023-04-25T14:49:35;1.25;;;0.80;;
21181;SDS011;10749;46.296;7.524;2023-04-25T14:52:01;1.27;;;0.77;;
21181;SDS011;10749;46.296;7.524;2023-04-25T14:54:26;3.53;;;0.90;;